首页
METAR-TAF:

METAR-TAF

机场 :

L. M. Clayton Airport

Wolf Point, 蒙大拿州, 美国

纬度: 48-05-40N, 经度: 105-34-38W, 海拔: 605米

当前天气观测

该预报发布于18分钟前的23:53 UTC
风速9节,风向
温度 27°C
湿度 32%
气压 1014 hPa
能見度: 16.1公里
阴天层高于9000英尺

METAR: KOLF 152353Z AUTO 35009KT 10SM OVC090 27/09 A2993 RMK AO2 SLPNO 6//// T02720089 10283 20244 55007

时间: 18:11 (00:11 UTC)

预报

该预报发布于51分钟前的23:20 UTC
预报有效从16日的 00点(UTC)到 16日的 24点(UTC)
风速4节,风向多变
能見度: 10公里
散云层高于15000英尺
几率 30%
从 16日的 04点(UTC)到 16日的 08点(UTC)
能見度: 9.7公里
阴天层高于10000英尺
小阵雨
从 16日的 0800点(UTC)
风速8节,风向东转东北
能見度: 10公里
阴天层高于9000英尺
几率 30%
从 16日的 09点(UTC)到 16日的 11点(UTC)
能見度: 9.7公里
阴天层高于8000英尺
小阵雨,

TAF: KOLF 152320Z 1600/1624 VRB04KT P6SM SCT150 PROB30 1604/1608 6SM -SHRA OVC100 FM160800 06008KT P6SM OVC090 PROB30 1609/1611 6SM -SHRA OVC080

超过4000个机场的气象观测和天气预报(METAR&TAF报告)。

可查询的气象台以黄色和红色小点在地图上表示。

将鼠标移到小点上方,可查看气象台名称。

然后点击查看天气观测和预报。

如需切换地图:点击带黑十字的绿色按钮放大地图;点击带横线的绿色按钮缩小地图;或者点击绿色箭头查看邻近地区的地图。


METAR-TAF: